• Join FlightAware (Why Join?)
  • Login
  • US Flag 
06:54AM EDT


 

Airport Tracker/Info


-or-


 

Live Flight TrackerFlight Track Log ✈ ZK-OKP ✈ 13-Apr-2013 ✈ EGLL / LHR - KLAX

Flight Track Log - Related Links

Times and Time Zones

All times are in EDT time to prevent confusion due to time zone crossing. See the ZK-OKP flight status page for this flight to view local times or setup timezone preferences in your user account.

Time Position Orientation Groundspeed Altitude Reporting Facility
EDT Latitude Longitude Course Direction KTS MPH feet Rate Location/Type
11:32AM 51.4777 -0.5299 267° West 191 220 2,200  Level FlightAware ADS-B
11:32AM 51.4773 -0.5352 263° West 188 216 2,400 2,520 Climbing FlightAware ADS-B
11:32AM 51.4766 -0.5402 257° West 187 215 2,500 1,680 Climbing FlightAware ADS-B
11:32AM 51.4756 -0.5454 253° West 188 216 2,600 1,500 Climbing FlightAware ADS-B
11:32AM 51.4744 -0.5507 250° West 190 219 2,700 1,260 Climbing FlightAware ADS-B
11:33AM 51.4710 -0.5640 248° West 199 229 2,900 1,260 Climbing FlightAware ADS-B
11:33AM 51.4682 -0.5768 251° West 208 239 3,100 1,320 Climbing FlightAware ADS-B
11:33AM 51.4655 -0.5910 253° West 217 250 3,300 1,620 Climbing FlightAware ADS-B
11:33AM 51.4631 -0.6045 254° West 222 255 3,600 2,820 Climbing FlightAware ADS-B
11:33AM 51.4603 -0.6212 255° West 222 255 4,200 3,000 Climbing FlightAware ADS-B
11:33AM 51.4580 -0.6373 257° West 224 258 4,600 2,280 Climbing FlightAware ADS-B
11:34AM 51.4557 -0.6550 258° West 228 262 5,000 2,100 Climbing FlightAware ADS-B
11:34AM 51.4545 -0.6655 260° West 230 265 5,200 1,980 Climbing FlightAware ADS-B
11:34AM 51.4539 -0.6751 264° West 234 269 5,400 2,280 Climbing FlightAware ADS-B
11:34AM 51.4535 -0.6874 267° West 239 275 5,700 1,620 Climbing FlightAware ADS-B
11:34AM 51.4532 -0.7146 269° West 245 282 6,000 840 Climbing FlightAware ADS-B
11:34AM 51.4532 -0.7366 270° West 246 283 6,100 180 Climbing FlightAware ADS-B
11:35AM 51.4534 -0.7641 271° West 245 282 6,100 540 Level FlightAware ADS-B
11:35AM 51.4534 -0.7928 270° West 247 284 6,400 1,260 Climbing FlightAware ADS-B
11:35AM 51.4532 -0.8219 269° West 249 287 6,800 1,140 Climbing FlightAware ADS-B
11:35AM 51.4531 -0.8504 270° West 248 285 7,000 480 Climbing FlightAware ADS-B
11:36AM 51.4529 -0.8669 269° West 248 285 7,000  Level FlightAware ADS-B
11:36AM 51.4523 -0.8753 263° West 247 284 7,000  Level FlightAware ADS-B
11:36AM 51.4517 -0.8808 260° West 245 282 7,000  Level FlightAware ADS-B
11:36AM 51.4509 -0.8862 257° West 242 278 7,000  Level FlightAware ADS-B
11:36AM 51.4482 -0.9004 253° West 240 276 7,000  Level FlightAware ADS-B
11:36AM 51.4422 -0.9277 251° West 241 277 7,000 900 Level FlightAware ADS-B
11:36AM 51.4363 -0.9539 250° West 244 281 7,500 2,220 Climbing FlightAware ADS-B
11:37AM 51.4301 -0.9819 250° West 244 281 8,200 2,340 Climbing FlightAware ADS-B
11:37AM 51.4255 -1.0023 250° West 247 284 8,600 1,980 Climbing FlightAware ADS-B
11:37AM 51.4243 -1.0079 251° West 247 284 8,700 2,520 Climbing FlightAware ADS-B
11:37AM 51.4233 -1.0146 257° West 249 287 8,900 2,520 Climbing FlightAware ADS-B
11:37AM 51.4227 -1.0204 261° West 251 289 9,000 1,980 Climbing FlightAware ADS-B
11:37AM 51.4223 -1.0260 263° West 253 291 9,100 2,520 Climbing FlightAware ADS-B
11:37AM 51.4222 -1.0335 269° West 255 293 9,300 2,220 Climbing FlightAware ADS-B
11:37AM 51.4225 -1.0407 274° West 256 295 9,400 1,800 Climbing FlightAware ADS-B
11:37AM 51.4237 -1.0513 280° West 260 299 9,600 2,640 Climbing FlightAware ADS-B
11:37AM 51.4250 -1.0577 288° West 263 303 9,800 2,760 Climbing FlightAware ADS-B
11:37AM 51.4299 -1.0745 295° West 266 306 10,200 -1,200 Climbing FlightAware ADS-B
11:38AM 51.4432 -1.1131 295° West 306 352 9,200 1,380 Descending FlightAware UK
11:38AM 51.4487 -1.1299 295° West 292 336 10,900 960 Climbing FlightAware ADS-B
11:38AM 51.4589 -1.1604 295° West 336 387 9,600 1,200 Descending FlightAware UK
11:38AM 51.4684 -1.1912 295° West 319 367 11,500 1,380 Climbing FlightAware ADS-B
11:39AM 51.4790 -1.2243 295° West 364 419 10,300 1,500 Descending FlightAware UK
11:39AM 51.4897 -1.2590 295° West 345 397 12,300 1,620 Climbing FlightAware ADS-B
11:39AM 51.5047 -1.3067 295° West 388 447 11,300 1,380 Descending FlightAware UK
11:40AM 51.5113 -1.3284 295° West 346 398 13,000 600 Climbing FlightAware ADS-B
11:40AM 51.5260 -1.3756 295° West 390 449 11,600 960 Descending FlightAware UK
11:40AM 51.5332 -1.3995 295° West 351 404 13,500 5,760 Climbing FlightAware ADS-B
11:40AM 51.5452 -1.4407 295° West 351 404 14,300 2,820 Climbing FlightAware ADS-B
11:41AM 51.5592 -1.4972 292° West 354 407 15,400 360 Climbing FlightAware ADS-B
11:41AM 51.5715 -1.5487 292° West 404 465 14,600 2,220 Descending FlightAware UK
11:41AM 51.5781 -1.5757 292° West 361 415 16,600 2,400 Climbing FlightAware ADS-B
11:42AM 51.5899 -1.6244 292° West 410 472 15,800 2,160 Descending FlightAware UK
11:42AM 51.5972 -1.6526 292° West 370 426 17,700 5,040 Climbing FlightAware ADS-B
11:42AM 51.6107 -1.7050 293° West 373 429 18,500 2,220 Climbing FlightAware ADS-B
11:42AM 51.6249 -1.7525 296° West 378 435 19,200 2,160 Climbing FlightAware ADS-B
11:43AM 51.6417 -1.8001 300° West 384 442 19,900 -360 Climbing FlightAware ADS-B
11:43AM 51.6612 -1.8486 300° West 428 493 19,000 1,860 Descending FlightAware UK
11:43AM 51.6724 -1.8776 300° West 393 452 20,900 3,840 Climbing FlightAware ADS-B
11:44AM 51.7024 -1.9539 302° West 402 463 21,700 -180 Climbing FlightAware ADS-B
11:44AM 51.7201 -1.9987 302° West 442 509 20,800 1,920 Descending FlightAware UK
11:44AM 51.7334 -2.0322 302° West 410 472 22,700 1,800 Climbing FlightAware ADS-B
11:45AM 51.7568 -2.0914 302° West 454 522 21,900 1,920 Descending FlightAware UK
11:45AM 51.7647 -2.1113 302° West 413 475 23,700 1,740 Climbing FlightAware ADS-B
11:45AM 51.7814 -2.1532 302° West 456 525 22,600 1,800 Descending FlightAware UK
11:45AM 51.7963 -2.1910 302° West 418 481 24,600 1,980 Climbing FlightAware ADS-B
11:46AM 51.8125 -2.2319 302° West 466 536 23,600 2,100 Descending FlightAware UK
11:46AM 51.8283 -2.2722 302° West 416 479 25,700 2,160 Climbing FlightAware ADS-B
11:46AM 51.8435 -2.3108 302° West 472 543 24,700 1,920 Descending FlightAware UK
11:46AM 51.8599 -2.3526 302° West 417 480 26,700 1,500 Climbing FlightAware ADS-B
11:47AM 51.8806 -2.4055 302° West 474 545 25,600 1,380 Descending FlightAware UK
11:47AM 51.8918 -2.4348 302° West 424 488 27,400 1,200 Climbing FlightAware ADS-B
11:47AM 51.9120 -2.4870 302° West 480 552 26,200 1,260 Descending FlightAware UK
11:47AM 51.9254 -2.5213 302° West 431 496 28,100 1,620 Climbing FlightAware ADS-B
11:48AM 51.9438 -2.5683 302° West 482 555 27,000 -1,380 Descending FlightAware UK
11:48AM 51.9630 -2.6181 302° West 486 559 27,300 1,140 Climbing FlightAware UK
11:48AM 51.9824 -2.6685 302° West 488 562 27,700 4,440 Climbing FlightAware UK
11:48AM 51.9870 -2.6810 302° West 443 510 29,300 1,200 Climbing FlightAware
11:49AM 52.0085 -2.7360 302° West 492 566 28,200 -1,500 Descending FlightAware UK
11:49AM 52.0283 -2.7878 302° West 496 571 28,500 4,800 Climbing FlightAware UK
11:49AM 52.0320 -2.7980 302° West 447 514 30,200 2,220 Climbing FlightAware
11:49AM 52.0543 -2.8555 302° West 492 566 29,400 -360 Descending FlightAware UK
11:50AM 52.0735 -2.9057 302° West 492 566 30,000 5,700 Climbing FlightAware UK
11:50AM 52.0730 -2.9050 302° West 443 510 31,600 960 Climbing FlightAware
11:50AM 52.1055 -2.9892 302° West 492 566 30,500 480 Descending FlightAware UK
11:50AM 52.1220 -3.0330 302° West 429 494 32,000  Climbing FlightAware
11:51AM 52.1423 -3.0887 302° West 488 562 30,500  Descending FlightAware UK
11:51AM 52.1650 -3.1490 302° West 427 491 32,000  Climbing FlightAware
11:51AM 52.1853 -3.2033 302° West 488 562 30,500 -2,520 Descending FlightAware UK
11:52AM 52.2040 -3.2531 302° West 488 562 30,500 4,080 Level FlightAware UK
11:52AM 52.2040 -3.2530 302° West 426 490 32,000  Climbing FlightAware
11:52AM 52.2286 -3.3184 302° West 486 559 30,500  Descending FlightAware UK
11:52AM 52.2460 -3.3630 302° West 426 490 32,000  Climbing FlightAware
11:53AM 52.2658 -3.4169 302° West 486 559 30,500  Descending FlightAware UK
11:53AM 52.2847 -3.4669 302° West 427 491 32,000  Climbing FlightAware ADS-B
11:53AM 52.3031 -3.5154 302° West 486 559 30,500  Descending FlightAware UK
11:54AM 52.3206 -3.5621 302° West 427 491 32,000  Climbing FlightAware ADS-B
11:54AM 52.3403 -3.6140 302° West 486 559 30,500  Descending FlightAware UK
11:54AM 52.3521 -3.6450 302° West 427 491 32,000  Climbing FlightAware ADS-B
11:54AM 52.3715 -3.6962 302° West 486 559 30,500  Descending FlightAware UK
11:55AM 52.3887 -3.7411 302° West 427 491 32,000  Climbing FlightAware ADS-B
11:55AM 52.4092 -3.7946 302° West 486 559 30,500  Descending FlightAware UK
11:55AM 52.4233 -3.8310 302° West 426 490 32,000  Climbing FlightAware ADS-B
11:56AM 52.4407 -3.8762 302° West 486 559 30,500 -2,700 Descending FlightAware UK
11:56AM 52.4597 -3.9249 303° West 486 559 30,500 2,460 Level FlightAware UK
11:56AM 52.4740 -3.9630 303° West 421 484 32,000  Climbing FlightAware
11:56AM 52.4969 -4.0214 303° West 484 557 30,500 -2,520 Descending FlightAware UK
11:57AM 52.5155 -4.0700 302° West 484 557 30,500 4,080 Level FlightAware UK
11:57AM 52.5150 -4.0700 302° West 419 482 32,000  Climbing FlightAware
11:57AM 52.5461 -4.1501 302° West 480 552 30,500  Descending FlightAware UK
11:57AM 52.5460 -4.1510 302° West 420 483 32,000  Climbing FlightAware
11:58AM 52.5710 -4.2149 302° West 480 552 30,500 -2,400 Descending FlightAware UK
11:58AM 52.5897 -4.2637 302° West 482 555 30,500 3,600 Level FlightAware UK
11:58AM 52.5890 -4.2620 302° West 423 487 32,000  Climbing FlightAware
11:58AM 52.6149 -4.3290 302° West 482 555 30,500 -2,580 Descending FlightAware UK
11:59AM 52.6338 -4.3782 302° West 480 552 30,500 3,180 Level FlightAware UK
11:59AM 52.6400 -4.3960 302° West 425 489 32,000  Climbing FlightAware
11:59AM 52.6653 -4.4607 302° West 486 559 30,500 -2,400 Descending FlightAware UK
11:59AM 52.6843 -4.5103 302° West 488 562 30,500 4,500 Level FlightAware UK
11:59AM 52.6830 -4.5070 302° West 426 490 32,000  Climbing FlightAware
12:00PM 52.7033 -4.5597 302° West 484 557 30,500 -2,700 Descending FlightAware UK
12:00PM 52.7224 -4.6089 303° West 484 557 30,500 3,060 Level FlightAware UK
12:00PM 52.7290 -4.6260 303° West 424 488 32,000  Climbing FlightAware
12:01PM 52.7525 -4.6920 303° West 482 555 30,500 -2,460 Descending FlightAware UK
12:01PM 52.7699 -4.7428 300° West 484 557 30,500 4,260 Level FlightAware UK
12:01PM 52.7680 -4.7390 300° West 424 488 32,000  Climbing FlightAware
12:01PM 52.7873 -4.7935 300° West 484 557 30,500 -2,760 Descending FlightAware UK
12:01PM 52.8047 -4.8442 300° West 484 557 30,500 3,000 Level FlightAware UK
12:02PM 52.8150 -4.8740 300° West 424 488 32,000  Climbing FlightAware
12:02PM 52.8340 -4.9278 300° West 486 559 30,500  Descending FlightAware UK
12:02PM 52.8530 -4.9830 300° West 423 487 32,000  Climbing FlightAware
12:03PM 52.8751 -5.0456 300° West 482 555 30,500  Descending FlightAware UK
12:03PM 52.8920 -5.0930 300° West 425 489 32,000  Climbing FlightAware
12:03PM 52.9104 -5.1469 300° West 480 552 30,500 -2,700 Descending FlightAware UK
12:04PM 52.9280 -5.1977 300° West 484 557 30,500 3,060 Level FlightAware UK
12:04PM 52.9370 -5.2240 300° West 427 491 32,000 1,740 Climbing FlightAware
12:04PM 52.9760 -5.3380 300° West 425 489 32,000 -1,380 Level FlightAware
12:05PM 53.0042 -5.4185 300° West 482 555 30,500  Descending FlightAware UK
12:05PM 53.0150 -5.4520 300° West 428 493 32,000  Climbing FlightAware
12:06PM 53.0450 -5.5387 300° West 482 555 30,500 -300 Descending FlightAware UK
12:06PM 53.0580 -5.5770 300° West 428 493 31,800 -1,500 Climbing FlightAware
12:06PM 53.0802 -5.6420 300° West 480 552 29,600 -3,900 Descending FlightAware UK
12:06PM 53.0980 -5.6944 300° West 486 559 29,400 3,960 Descending FlightAware UK
12:06PM 53.1000 -5.6990 300° West 440 506 31,000  Climbing FlightAware
12:07PM 53.1163 -5.7485 300° West 488 562 29,400 -2,760 Descending FlightAware UK
12:07PM 53.1342 -5.8015 299° West 488 562 29,500 3,840 Climbing FlightAware UK
12:07PM 53.1390 -5.8170 299° West 439 505 31,000  Climbing FlightAware
12:07PM 53.1581 -5.8723 299° West 486 559 29,500 -2,580 Descending FlightAware UK
12:08PM 53.1759 -5.9252 299° West 484 557 29,500 3,180 Level FlightAware UK
12:08PM 53.1830 -5.9470 299° West 438 504 31,000  Climbing FlightAware
12:08PM 53.2052 -6.0130 299° West 484 557 29,500  Descending FlightAware UK
12:09PM 53.2190 -6.0540 299° West 438 504 31,000  Climbing FlightAware
12:09PM 53.2406 -6.1192 299° West 486 559 29,500 -2,700 Descending FlightAware UK
12:09PM 53.2585 -6.1728 299° West 486 559 29,500 3,060 Level FlightAware UK
12:09PM 53.2650 -6.1940 299° West 437 503 31,000  Climbing FlightAware
12:10PM 53.2876 -6.2608 299° West 486 559 29,500 -2,460 Descending FlightAware UK
12:10PM 53.3051 -6.3140 299° West 484 557 29,500 4,260 Level FlightAware UK
12:10PM 53.3040 -6.3120 299° West 437 503 31,000  Climbing FlightAware
12:10PM 53.3285 -6.3848 299° West 484 557 29,500 -2,340 Descending FlightAware UK
12:11PM 53.3460 -6.4380 299° West 486 559 29,500 3,720 Level FlightAware UK
12:11PM 53.3500 -6.4500 299° West 437 503 31,000  Climbing FlightAware
12:11PM 53.3694 -6.5090 299° West 486 559 29,500 -2,520 Descending FlightAware UK
12:11PM 53.3868 -6.5623 299° West 488 562 29,500 4,080 Level FlightAware UK
12:11PM 53.3870 -6.5620 299° West 436 502 31,000  Climbing FlightAware
12:12PM 53.4100 -6.6335 299° West 486 559 29,500 -2,400 Descending FlightAware UK
12:12PM 53.4273 -6.6862 299° West 486 559 29,500 4,500 Level FlightAware UK
12:12PM 53.4270 -6.6840 299° West 436 502 31,000  Climbing FlightAware
12:12PM 53.4446 -6.7396 299° West 488 562 29,500 -2,700 Descending FlightAware UK
12:13PM 53.4619 -6.7929 299° West 486 559 29,500 3,060 Level FlightAware UK
12:13PM 53.4700 -6.8180 299° West 435 501 31,000  Climbing FlightAware
12:13PM 53.4906 -6.8819 299° West 486 559 29,500 -2,460 Descending FlightAware UK
12:13PM 53.5078 -6.9354 298° West 486 559 29,500 4,260 Level FlightAware UK
12:13PM 53.5080 -6.9370 298° West 436 502 31,000  Climbing FlightAware
12:14PM 53.5250 -6.9890 298° West 486 559 29,500 -2,340 Descending FlightAware UK
12:14PM 53.5479 -7.0604 298° West 486 559 29,500 3,000 Level FlightAware UK
12:14PM 53.5520 -7.0730 298° West 434 499 31,000  Climbing FlightAware
12:15PM 53.5708 -7.1318 298° West 486 559 29,500 -2,520 Descending FlightAware UK
12:15PM 53.5880 -7.1854 298° West 486 559 29,500 4,080 Level FlightAware UK
12:15PM 53.5900 -7.1930 298° West 435 501 31,000  Climbing FlightAware
12:15PM 53.6107 -7.2570 298° West 486 559 29,500 -2,400 Descending FlightAware UK
12:16PM 53.6276 -7.3101 298° West 486 559 29,500 4,500 Level FlightAware UK
12:16PM 53.6260 -7.3050 298° West 430 495 31,000  Climbing FlightAware
12:16PM 53.6445 -7.3637 298° West 486 559 29,500 -2,700 Descending FlightAware UK
12:16PM 53.6614 -7.4173 298° West 486 559 29,500 3,060 Level FlightAware UK
12:16PM 53.6680 -7.4380 298° West 431 496 31,000  Climbing FlightAware
12:17PM 53.6896 -7.5069 298° West 488 562 29,500 -2,460 Descending FlightAware UK
12:17PM 53.7065 -7.5607 298° West 484 557 29,500 4,260 Level FlightAware UK
12:17PM 53.7050 -7.5550 298° West 430 495 31,000  Climbing FlightAware
12:17PM 53.7234 -7.6146 298° West 486 559 29,500 -2,760 Descending FlightAware UK
12:18PM 53.7403 -7.6686 298° West 484 557 29,500 3,600 Level FlightAware UK
12:18PM 53.7430 -7.6780 298° West 430 495 31,000  Climbing FlightAware
12:18PM 53.7628 -7.7405 298° West 484 557 29,500 -2,580 Descending FlightAware UK
12:18PM 53.7795 -7.7945 298° West 484 557 29,500 3,180 Level FlightAware UK
12:18PM 53.7840 -7.8100 298° West 432 497 31,000  Climbing FlightAware
12:19PM 53.8075 -7.8849 298° West 486 559 29,500 -2,400 Descending FlightAware UK
12:19PM 53.8244 -7.9394 298° West 486 559 29,500 4,500 Level FlightAware UK
12:19PM 53.8230 -7.9350 298° West 434 499 31,000  Climbing FlightAware
12:19PM 53.8412 -7.9939 298° West 486 559 29,500 -2,700 Descending FlightAware UK
12:20PM 53.8580 -8.0486 298° West 484 557 29,500 3,060 Level FlightAware UK
12:20PM 53.8650 -8.0710 298° West 433 498 31,000  Climbing FlightAware
12:20PM 53.8860 -8.1398 298° West 486 559 29,500 -2,460 Descending FlightAware UK
12:20PM 53.9029 -8.1945 298° West 486 559 29,500 4,260 Level FlightAware UK
12:20PM 53.9010 -8.1900 298° West 434 499 31,000  Climbing FlightAware
12:21PM 53.9196 -8.2494 298° West 486 559 29,500 -2,760 Descending FlightAware UK
12:21PM 53.9363 -8.3043 297° West 486 559 29,500 3,000 Level FlightAware UK
12:21PM 53.9440 -8.3280 297° West 435 501 31,000  Climbing FlightAware
12:22PM 53.9641 -8.3959 297° West 488 562 29,500 -2,520 Descending FlightAware UK
12:22PM 53.9807 -8.4509 297° West 486 559 29,500 4,080 Level FlightAware UK
12:22PM 53.9800 -8.4500 297° West 433 498 31,000  Climbing FlightAware
12:22PM 54.0028 -8.5241 297° West 488 562 29,500 -2,400 Descending FlightAware UK
12:23PM 54.0192 -8.5785 297° West 486 559 29,500 4,500 Level FlightAware UK
12:23PM 54.0170 -8.5730 297° West 433 498 31,000  Climbing FlightAware
12:23PM 54.0357 -8.6334 297° West 486 559 29,500 -2,700 Descending FlightAware UK
12:23PM 54.0522 -8.6883 297° West 488 562 29,500 3,060 Level FlightAware UK
12:23PM 54.0570 -8.7040 297° West 436 502 31,000  Climbing FlightAware
12:24PM 54.0795 -8.7797 297° West 486 559 29,500 -2,460 Descending FlightAware UK
12:24PM 54.0958 -8.8347 297° West 486 559 29,500 4,260 Level FlightAware UK
12:24PM 54.0950 -8.8310 297° West 436 502 31,000  Climbing FlightAware
12:24PM 54.1122 -8.8899 297° West 486 559 29,500 -2,760 Descending FlightAware UK
12:25PM 54.1286 -8.9452 297° West 486 559 29,500 3,600 Level FlightAware UK
12:25PM 54.1310 -8.9550 297° West 438 504 31,000 1,680 Climbing FlightAware
12:25PM 54.1720 -9.0930 297° West 439 505 31,000  Level FlightAware
12:26PM 54.2090 -9.2200 297° West 440 506 31,000  Level FlightAware
12:27PM 54.2500 -9.3580 297° West 439 505 31,000  Level FlightAware
12:27PM 54.2870 -9.4870 296° West 435 501 31,000  Level FlightAware
12:28PM 54.3270 -9.6270 296° West 433 498 31,000  Level FlightAware
12:29PM 54.3610 -9.7450 296° West 425 489 31,000  Level FlightAware
12:30PM 54.4000 -9.8810 296° West 422 486 31,000  Level FlightAware
12:30PM 54.4340 -10.0000 296° West 419 482 31,000  Level FlightAware
12:31PM 54.4720 -10.1200 299° West 433 498 31,000  Level FlightAware
12:31PM 54.5130 -10.1990 312° West 447 514 31,000  Level FlightAware
12:32PM 54.5710 -10.3010 314° West 456 525 31,000  Level FlightAware
12:33PM 54.6390 -10.4180 315° West 447 514 31,000  Level FlightAware
12:34PM 54.7220 -10.5640 315° West 450 518 31,000  Level FlightAware
12:35PM 54.8260 -10.7500 314° West 451 519 31,000  Level FlightAware
12:36PM 54.9280 -10.9340 314° West 450 518 31,000  Level FlightAware
12:37PM 55.0440 -11.1450 314° West 452 520 31,000  Level FlightAware
12:39PM 55.1550 -11.3460 314° West 452 520 31,000  Level FlightAware
12:40PM 55.2490 -11.5210 313° West 454 522 31,000  Level FlightAware
12:41PM 55.3390 -11.6860 314° West 464 534 31,000  Level FlightAware
12:42PM 55.4300 -11.8580 313° West 469 540 31,000  Level FlightAware
12:43PM 55.4810 -11.9530 313° West 469 540 31,000  Level FlightAware
12:43PM 55.5310 -12.0480 313° West 469 540 31,000  Level FlightAware
12:44PM 55.6360 -12.2470 313° West 472 543 31,000  Level FlightAware
12:45PM 55.6850 -12.3450 312° West 472 543 31,000  Level FlightAware
12:46PM 55.7470 -12.4670 312° West 472 543 31,000  Level FlightAware
12:46PM 55.7970 -12.5660 312° West 472 543 31,000  Level FlightAware
12:47PM 55.8470 -12.6640 312° West 472 543 31,000  Level FlightAware
12:48PM 55.8960 -12.7620 312° West 472 543 31,000  Level FlightAware
12:48PM 55.9460 -12.8610 312° West 472 543 31,000  Level FlightAware
12:49PM 56.0080 -12.9840 312° West 472 543 31,000  Level FlightAware
12:50PM 56.0580 -13.0830 312° West 472 543 31,000  Level FlightAware
12:51PM 56.1070 -13.1820 312° West 472 543 31,000  Level FlightAware
12:51PM 56.1570 -13.2810 312° West 472 543 31,000  Level FlightAware
12:52PM 56.2070 -13.3800 312° West 472 543 31,000  Level FlightAware
12:53PM 56.2690 -13.5040 312° West 472 543 31,000  Level FlightAware
12:53PM 56.3190 -13.6030 312° West 472 543 31,000  Level FlightAware
12:56PM 56.4565 -14.0158 301° West  Level Estimated
12:57PM 56.5205 -14.2103 301° West  Level Estimated
12:58PM 56.5842 -14.4054 301° West  Level Estimated
12:59PM 56.6476 -14.6013 301° West  Level Estimated
01:00PM 56.7107 -14.7977 300° West  Level Estimated
01:01PM 56.7734 -14.9949 300° West  Level Estimated
01:02PM 56.8359 -15.1927 300° West  Level Estimated
01:03PM 56.8980 -15.3911 300° West  Level Estimated
01:04PM 56.9598 -15.5903 300° West  Level Estimated
01:05PM 57.0214 -15.7900 300° West  Level Estimated
01:06PM 57.0825 -15.9905 299° West  Level Estimated
01:07PM 57.1434 -16.1916 299° West  Level Estimated
01:08PM 57.2039 -16.3933 299° West  Level Estimated
01:09PM 57.2642 -16.5958 299° West  Level Estimated
01:10PM 57.3241 -16.7988 299° West  Level Estimated
01:11PM 57.3836 -17.0026 299° West  Level Estimated
01:12PM 57.4428 -17.2070 298° West  Level Estimated
01:13PM 57.5018 -17.4120 298° West  Level Estimated
01:14PM 57.5603 -17.6178 298° West  Level Estimated
01:15PM 57.6185 -17.8242 298° West  Level Estimated
01:16PM 57.6764 -18.0312 298° West  Level Estimated
01:17PM 57.7340 -18.2389 298° West  Level Estimated
01:18PM 57.7912 -18.4473 297° West  Level Estimated
01:19PM 57.8481 -18.6563 297° West  Level Estimated
01:20PM 57.9046 -18.8660 297° West  Level Estimated
01:21PM 57.9608 -19.0763 297° West  Level Estimated
01:22PM 58.0166 -19.2873 297° West  Level Estimated
01:23PM 58.0721 -19.4990 296° West  Level Estimated
01:24PM 58.1273 -19.7113 296° West  Level Estimated
01:25PM 58.1820 -19.9243 296° West  Level Estimated
01:26PM 58.2365 -20.1379 296° West  Level Estimated
01:27PM 58.2905 -20.3522 296° West  Level Estimated
01:28PM 58.3442 -20.5672 296° West  Level Estimated
01:29PM 58.3975 -20.7827 295° West  Level Estimated
01:30PM 58.4505 -20.9990 295° West  Level Estimated
01:31PM 58.5032 -21.2159 295° West  Level Estimated
01:32PM 58.5554 -21.4334 295° West  Level Estimated
01:33PM 58.6073 -21.6516 295° West  Level Estimated
01:34PM 58.6588 -21.8704 294° West  Level Estimated
01:35PM 58.7099 -22.0899 294° West  Level Estimated
01:36PM 58.7607 -22.3100 294° West  Level Estimated
01:37PM 58.8111 -22.5308 294° West  Level Estimated
01:38PM 58.8611 -22.7522 294° West  Level Estimated
01:39PM 58.9107 -22.9742 293° West  Level Estimated
01:40PM 58.9600 -23.1969 293° West  Level Estimated
01:41PM 59.0088 -23.4202 293° West  Level Estimated
01:42PM 59.0573 -23.6442 293° West  Level Estimated
01:43PM 59.1054 -23.8687 293° West  Level Estimated
01:44PM 59.1531 -24.0939 293° West  Level Estimated
01:45PM 59.2004 -24.3198 292° West  Level Estimated
01:46PM 59.2473 -24.5462 292° West  Level Estimated
01:47PM 59.2938 -24.7733 292° West  Level Estimated
01:48PM 59.3400 -25.0010 292° West  Level Estimated
01:49PM 59.3857 -25.2293 292° West  Level Estimated
01:50PM 59.4310 -25.4582 291° West  Level Estimated
01:51PM 59.4760 -25.6877 291° West  Level Estimated
01:52PM 59.5205 -25.9179 291° West  Level Estimated
01:53PM 59.5646 -26.1486 291° West  Level Estimated
01:54PM 59.6083 -26.3800 291° West  Level Estimated
01:55PM 59.6516 -26.6119 290° West  Level Estimated
01:56PM 59.6945 -26.8445 290° West  Level Estimated
01:57PM 59.7370 -27.0776 290° West  Level Estimated
01:58PM 59.7791 -27.3113 290° West  Level Estimated
01:59PM 59.8207 -27.5457 290° West  Level Estimated
02:00PM 59.8620 -27.7806 289° West  Level Estimated
02:01PM 59.9028 -28.0160 289° West  Level Estimated
02:02PM 59.9432 -28.2521 289° West  Level Estimated
02:03PM 59.9832 -28.4887 289° West  Level Estimated
02:04PM 60.0227 -28.7259 289° West  Level Estimated
02:05PM 60.0618 -28.9637 288° West  Level Estimated
02:06PM 60.1005 -29.2020 288° West  Level Estimated
02:07PM 60.1388 -29.4409 288° West  Level Estimated
02:08PM 60.1766 -29.6804 288° West  Level Estimated
02:09PM 60.2140 -29.9203 288° West  Level Estimated
02:10PM 60.2510 -30.1609 287° West  Level Estimated
02:11PM 60.2875 -30.4020 287° West  Level Estimated
02:12PM 60.3236 -30.6436 287° West  Level Estimated
02:13PM 60.3592 -30.8857 287° West  Level Estimated
02:14PM 60.3945 -31.1284 286° West  Level Estimated
02:15PM 60.4292 -31.3716 286° West  Level Estimated
02:16PM 60.4636 -31.6153 286° West  Level Estimated
02:17PM 60.4974 -31.8595 286° West  Level Estimated
02:18PM 60.5309 -32.1042 286° West  Level Estimated
02:19PM 60.5639 -32.3494 285° West  Level Estimated
02:20PM 60.5964 -32.5952 285° West  Level Estimated
02:21PM 60.6285 -32.8414 285° West  Level Estimated
02:22PM 60.6601 -33.0881 285° West  Level Estimated
02:23PM 60.6913 -33.3353 285° West  Level Estimated
02:24PM 60.7220 -33.5830 284° West  Level Estimated
02:25PM 60.7523 -33.8311 284° West  Level Estimated
02:26PM 60.7821 -34.0797 284° West  Level Estimated
02:27PM 60.8114 -34.3288 284° West  Level Estimated
02:28PM 60.8403 -34.5783 283° West  Level Estimated
02:29PM 60.8687 -34.8282 283° West  Level Estimated
02:30PM 60.8967 -35.0786 283° West  Level Estimated
02:31PM 60.9241 -35.3295 283° West  Level Estimated
02:32PM 60.9512 -35.5807 283° West  Level Estimated
02:33PM 60.9777 -35.8324 282° West  Level Estimated
02:34PM 61.0038 -36.0845 282° West  Level Estimated
02:35PM 61.0294 -36.3371 282° West  Level Estimated
02:36PM 61.0546 -36.5900 282° West  Level Estimated
02:37PM 61.0792 -36.8433 281° West  Level Estimated
02:38PM 61.1034 -37.0970 281° West  Level Estimated
02:39PM 61.1271 -37.3511 281° West  Level Estimated
02:40PM 61.1503 -37.6056 281° West  Level Estimated
02:41PM 61.1731 -37.8604 281° West  Level Estimated
02:42PM 61.1954 -38.1157 280° West  Level Estimated
02:43PM 61.2172 -38.3712 280° West  Level Estimated
02:44PM 61.2385 -38.6271 280° West  Level Estimated
02:45PM 61.2593 -38.8834 280° West  Level Estimated
02:46PM 61.2797 -39.1400 279° West  Level Estimated
02:47PM 61.2995 -39.3969 279° West  Level Estimated
02:48PM 61.3189 -39.6542 279° West  Level Estimated
02:49PM 61.3378 -39.9117 279° West  Level Estimated
02:50PM 61.3562 -40.1696 279° West  Level Estimated
02:51PM 61.3741 -40.4278 278° West  Level Estimated
02:52PM 61.3916 -40.6862 278° West  Level Estimated
02:53PM 61.4085 -40.9450 278° West  Level Estimated
02:54PM 61.4249 -41.2040 278° West  Level Estimated
02:55PM 61.4409 -41.4633 277° West  Level Estimated
02:56PM 61.4564 -41.7228 277° West  Level Estimated
02:57PM 61.4713 -41.9826 277° West  Level Estimated
02:58PM 61.4858 -42.2427 277° West  Level Estimated
02:59PM 61.4998 -42.5030 277° West  Level Estimated
03:00PM 61.5132 -42.7635 276° West  Level Estimated
03:01PM 61.5262 -43.0242 276° West  Level Estimated
03:02PM 61.5387 -43.2852 276° West  Level Estimated
03:03PM 61.5507 -43.5463 276° West  Level Estimated
03:04PM 61.5622 -43.8077 275° West  Level Estimated
03:05PM 61.5732 -44.0693 275° West  Level Estimated
03:06PM 61.5836 -44.3310 275° West  Level Estimated
03:07PM 61.5936 -44.5929 275° West  Level Estimated
03:08PM 61.6031 -44.8549 274° West  Level Estimated
03:09PM 61.6121 -45.1172 274° West  Level Estimated
03:10PM 61.6206 -45.3795 274° West  Level Estimated
03:11PM 61.6286 -45.6421 274° West  Level Estimated
03:12PM 61.6360 -45.9047 274° West  Level Estimated
03:13PM 61.6430 -46.1674 273° West  Level Estimated
03:14PM 61.6495 -46.4303 273° West  Level Estimated
03:15PM 61.6554 -46.6933 273° West  Level Estimated
03:16PM 61.6609 -46.9564 273° West  Level Estimated
03:17PM 61.6658 -47.2196 272° West  Level Estimated
03:17PM 64.0270 -50.3140 272° West 478 550 32,000  Level FlightAware
03:18PM 61.6703 -47.4828 272° West  Level Estimated
03:18PM 64.0330 -50.5160 274° West 479 551 32,000  Level FlightAware
03:19PM 64.0400 -50.7160 275° West 479 551 32,000  Level FlightAware
03:19PM 64.0460 -50.9390 274° West 477 549 32,000  Level FlightAware
03:20PM 64.0520 -51.1410 274° West 475 547 32,000  Level FlightAware
03:21PM 64.0570 -51.3360 273° West 474 545 32,000  Level FlightAware
03:21PM 64.0620 -51.5700 273° West 475 547 32,000  Level FlightAware
03:22PM 64.0670 -51.7660 273° West 477 549 32,000  Level FlightAware
03:23PM 64.0720 -51.9880 273° West 478 550 32,000  Level FlightAware
03:24PM 64.0760 -52.1880 273° West 477 549 32,000  Level FlightAware
03:24PM 64.0800 -52.4220 272° West 476 548 32,000  Level FlightAware
03:25PM 64.0830 -52.6250 272° West 478 550 32,000  Level FlightAware
03:26PM 64.0860 -52.8240 272° West 479 551 32,000  Level FlightAware
03:26PM 64.0880 -53.0020 272° West 479 551 32,000  Level FlightAware
03:27PM 64.0890 -53.1750 271° West 479 551 32,000  Level FlightAware
03:28PM 64.0910 -53.3900 271° West 479 551 32,000  Level FlightAware
03:28PM 64.0920 -53.5630 271° West 479 551 32,000  Level FlightAware
03:29PM 64.0930 -53.7350 271° West 479 551 32,000  Level FlightAware
03:30PM 64.0950 -53.9080 272° West 479 551 32,000  Level FlightAware
03:30PM 64.0960 -54.0800 271° West 479 551 32,000  Level FlightAware
03:31PM 64.0970 -54.2960 271° West 479 551 32,000  Level FlightAware
03:32PM 64.0990 -54.4680 272° West 479 551 32,000  Level FlightAware
03:33PM 64.1000 -54.6410 271° West 479 551 32,000  Level FlightAware
03:33PM 64.1010 -54.8130 271° West 479 551 32,000  Level FlightAware
03:34PM 64.1030 -54.9860 272° West 479 551 32,000  Level FlightAware
03:35PM 64.1040 -55.1580 271° West 479 551 32,000  Level FlightAware
03:35PM 64.1050 -55.3740 271° West 479 551 32,000  Level FlightAware
03:36PM 64.1167 -55.9833 271° West 490 564 32,000  Level Gander Center
03:37PM 64.1333 -56.2833 277° West 480 552 32,000  Level Gander Center
03:38PM 64.1167 -56.5167 261° West 480 552 32,000  Level Gander Center
03:39PM 64.1167 -56.8167 270° West 480 552 32,000  Level Gander Center
03:40PM 64.1167 -57.1167 270° West 480 552 32,000  Level Gander Center
03:41PM 64.1167 -57.4167 270° West 480 552 32,000  Level Gander Center
03:42PM 64.1000 -57.7333 263° West 480 552 32,000  Level Gander Center
03:43PM 64.1000 -58.0667 270° West 490 564 32,000  Level Gander Center
03:44PM 64.0833 -58.3667 263° West 490 564 32,000  Level Gander Center
03:45PM 64.0833 -58.6333 270° West 490 564 32,000  Level Gander Center
03:46PM 64.0833 -58.9833 270° West 480 552 32,000  Level Gander Center
03:47PM 64.0667 -59.2500 262° West 480 552 32,000  Level Gander Center
03:48PM 64.0500 -59.5833 264° West 480 552 32,000  Level Gander Center
03:49PM 64.0333 -59.8833 263° West 490 564 32,000  Level Gander Center
03:50PM 64.0000 -60.1833 256° West 480 552 32,000  Level Gander Center
03:51PM 63.9667 -60.4500 254° West 490 564 32,000  Level Gander Center
03:52PM 63.9167 -60.7500 249° West 490 564 32,000  Level Gander Center
03:53PM 63.8833 -61.0167 254° West 500 575 32,000  Level Gander Center
03:54PM 63.8333 -61.3500 251° West 500 575 32,000  Level Gander Center
03:55PM 63.7833 -61.6167 247° West 500 575 32,000  Level Gander Center
03:56PM 63.7167 -61.9833 248° West 510 587 32,000  Level Gander Center
03:57PM 63.6833 -62.2500 254° West 500 575 32,000  Level Gander Center
03:58PM 63.6333 -62.5500 250° West 500 575 32,000  Level Gander Center
03:59PM 63.5667 -62.8500 244° Southwest 500 575 32,000  Level Gander Center
04:00PM 63.5167 -63.1000 246° West 500 575 32,000  Level Gander Center
04:01PM 63.4833 -63.4000 256° West 490 564 32,000  Level Gander Center
04:02PM 63.4333 -63.6833 249° West 490 564 32,000  Level Gander Center
04:03PM 63.3833 -63.9833 250° West 500 575 32,000  Level Gander Center
04:04PM 63.3333 -64.2667 249° West 500 575 32,000  Level Gander Center
04:05PM 63.2833 -64.5667 250° West 490 564 32,000  Level Gander Center
04:06PM 63.2667 -64.6667 250° West 490 564 32,000  Level Gander Center
04:06PM 63.2500 -64.8167 256° West 490 564 32,000  Level Gander Center
04:07PM 63.1833 -65.1000 243° Southwest 500 575 32,000  Level Gander Center
04:08PM 63.1667 -65.2000 250° West 490 564 32,000  Level Gander Center
04:08PM 63.1500 -65.3833 259° West 490 564 32,000  Level Gander Center
04:09PM 63.0833 -65.6667 243° Southwest 490 564 32,000  Level Gander Center
04:10PM 63.0500 -65.9167 254° West 490 564 32,000  Level Gander Center
04:11PM 62.9833 -66.2500 246° West 490 564 32,000  Level Gander Center
04:12PM 62.9667 -66.3500 250° West 490 564 32,000  Level Gander Center
04:12PM 62.9500 -66.4833 255° West 490 564 32,000  Level Gander Center
04:13PM 62.8833 -66.7667 243° Southwest 490 564 32,000  Level Gander Center
04:14PM 62.8333 -67.0500 249° West 490 564 32,000  Level Gander Center
04:15PM 62.8000 -67.1500 234° Southwest 490 564 32,000  Level Gander Center
04:15PM 62.7667 -67.3000 244° Southwest 500 575 32,000  Level Gander Center
04:16PM 62.7500 -67.4333 255° West 500 575 32,000  Level Gander Center
04:16PM 62.7000 -67.5667 231° Southwest 500 575 32,000  Level Gander Center
04:17PM 62.6500 -67.8167 247° West 500 575 32,000  Level Gander Center
04:18PM 62.5667 -68.0833 236° Southwest 500 575 32,000  Level Gander Center
04:19PM 62.5000 -68.3667 243° Southwest 500 575 32,000  Level Gander Center
04:20PM 62.4167 -68.6333 236° Southwest 500 575 32,000  Level Gander Center
04:21PM 62.4000 -68.7333 250° West 500 575 32,000  Level Gander Center
04:21PM 62.3833 -68.7667 223° Southwest 500 575 32,000  Level Montreal Center
04:22PM 62.3167 -69.0000 238° Southwest 500 575 32,000  Level Montreal Center
04:23PM 62.2333 -69.2667 236° Southwest 500 575 32,000  Level Montreal Center
04:24PM 62.1500 -69.5333 236° Southwest 500 575 32,000  Level Montreal Center
04:25PM 62.0833 -69.8000 242° Southwest 500 575 32,000  Level Montreal Center
04:26PM 62.0167 -70.0667 242° Southwest 510 587 32,000  Level Montreal Center
04:27PM 61.9500 -70.3167 241° Southwest 510 587 32,000  Level Montreal Center
04:28PM 61.8833 -70.5833 242° Southwest 510 587 32,000  Level Montreal Center
04:29PM 61.8333 -70.8833 251° West 510 587 32,000  Level Montreal Center
04:30PM 61.7667 -71.1667 244° Southwest 520 598 32,000  Level Montreal Center
04:31PM 61.6833 -71.5167 243° Southwest 520 598 32,000  Level Gander Center
04:32PM 61.6167 -71.4500 155° Southeast 500 575 32,000  Level Edmonton Center
04:32PM 61.6500 -71.6833 287° West 520 598 32,000  Level Montreal Center
04:33PM 61.5500 -71.7333 193° South 540 621 32,000  Level Edmonton Center
04:34PM 61.4833 -72.0000 242° Southwest 520 598 32,000  Level Edmonton Center
04:35PM 61.4167 -72.2500 241° Southwest 510 587 32,000  Level Edmonton Center
04:35PM 61.4500 -72.4833 287° West 510 587 32,000  Level Montreal Center
04:36PM 61.3500 -72.5167 189° South 520 598 32,000  Level Edmonton Center
04:37PM 61.2833 -72.7833 243° Southwest 520 598 32,000  Level Edmonton Center
04:38PM 61.2000 -73.0667 239° Southwest 520 598 32,000  Level Edmonton Center
04:38PM 61.2333 -73.3167 286° West 520 598 32,000  Level Montreal Center
04:39PM 61.1667 -73.5500 239° Southwest 520 598 32,000  Level Montreal Center
04:40PM 61.0833 -73.6000 196° South 530 610 32,000  Level Edmonton Center
04:41PM 61.0000 -73.8333 234° Southwest 520 598 32,000  Level Edmonton Center
04:42PM 60.9333 -74.1000 243° Southwest 520 598 32,000  Level Edmonton Center
04:42PM 60.9667 -74.3333 286° West 520 598 32,000  Level Montreal Center
04:43PM 60.8667 -74.3667 189° South 520 598 32,000  Level Edmonton Center
04:43PM 60.8833 -74.6167 278° West 510 587 32,000  Level Montreal Center
04:44PM 60.8000 -74.6333 186° South 520 598 32,000  Level Edmonton Center
04:45PM 60.7167 -74.8833 236° Southwest 520 598 32,000  Level Edmonton Center
04:45PM 60.7333 -75.1000 279° West 510 587 32,000  Level Montreal Center
04:46PM 60.6667 -75.3333 240° Southwest 510 587 32,000  Level Montreal Center
04:47PM 60.6000 -75.6167 244° Southwest 510 587 32,000  Level Montreal Center
04:48PM 60.5167 -75.6333 186° South 510 587 32,000  Level Edmonton Center
04:49PM 60.4167 -75.8667 229° Southwest 510 587 32,000  Level Edmonton Center
04:49PM 60.4500 -76.1000 286° West 510 587 32,000  Level Montreal Center
04:50PM 60.3833 -76.3667 243° Southwest 500 575 32,000  Level Montreal Center
04:51PM 60.2833 -76.3667 180° South 510 587 32,000  Level Edmonton Center
04:52PM 60.2167 -76.5833 238° Southwest 500 575 32,000  Level Edmonton Center
04:53PM 60.1500 -76.8333 242° Southwest 500 575 32,000  Level Edmonton Center
04:53PM 60.1667 -77.0667 278° West 500 575 32,000  Level Montreal Center
04:54PM 60.1000 -77.3000 240° Southwest 490 564 32,000  Level Montreal Center
04:55PM 59.9833 -77.3500 192° South 510 587 32,000  Level Edmonton Center
04:56PM 59.9000 -77.5667 233° Southwest 490 564 32,000  Level Edmonton Center
04:57PM 59.8500 -77.8000 247° West 500 575 32,000  Level Edmonton Center
04:57PM 59.8667 -78.0000 280° West 500 575 32,000  Level Montreal Center
04:58PM 59.7833 -78.2333 235° Southwest 500 575 32,000  Level Montreal Center
04:59PM 59.7000 -78.4500 233° Southwest 500 575 32,000  Level Montreal Center
05:00PM 59.6167 -78.5000 197° South 500 575 32,000  Level Edmonton Center
05:00PM 59.6333 -78.6833 280° West 500 575 32,000  Level Montreal Center
05:01PM 59.5333 -78.7167 190° South 500 575 32,000  Level Edmonton Center
05:02PM 59.4667 -78.9500 241° Southwest 500 575 32,000  Level Edmonton Center
05:02PM 59.4833 -79.1667 279° West 500 575 32,000  Level Montreal Center
05:03PM 59.4000 -79.3833 233° Southwest 500 575 32,000  Level Montreal Center
05:05PM 59.2886 -79.6796 234° Southwest  Level FlightAware Approximate
05:05PM 59.2333 -79.8333 234° Southwest 500 575 32,000  Level Montreal Center
05:06PM 59.1667 -80.0500 239° Southwest 500 575 32,000  Level Montreal Center
05:07PM 59.0833 -80.1000 197° South 500 575 32,000  Level Edmonton Center
05:08PM 59.0333 -80.3500 249° West 500 575 32,000  Level Edmonton Center
05:08PM 59.0500 -80.5667 279° West 500 575 32,000  Level Montreal Center
05:09PM 58.9833 -80.7833 239° Southwest 500 575 32,000  Level Montreal Center
05:10PM 58.9167 -81.0333 243° Southwest 500 575 32,000  Level Montreal Center
05:11PM 58.8500 -81.2833 243° Southwest 500 575 32,000  Level Montreal Center
05:12PM 58.7667 -81.3167 192° South 500 575 32,000  Level Edmonton Center
05:12PM 58.8000 -81.5333 287° West 500 575 32,000 1,140 Level Montreal Center
05:13PM 58.7333 -81.7667 241° Southwest 500 575 33,500 1,140 Climbing Montreal Center
05:14PM 58.6500 -81.8167 197° South 500 575 34,000 480 Climbing Edmonton Center
05:14PM 58.6500 -82.0000 270° West 500 575 34,000  Level Montreal Center
05:15PM 58.6000 -82.2500 249° West 500 575 34,000  Level Montreal Center
05:16PM 58.5167 -82.2667 186° South 500 575 34,000  Level Edmonton Center
05:17PM 58.4500 -82.4833 240° Southwest 500 575 34,000  Level Edmonton Center
05:18PM 58.3833 -82.7333 243° Southwest 500 575 34,000  Level Edmonton Center
05:19PM 58.3167 -82.9833 243° Southwest 500 575 34,000  Level Edmonton Center
05:20PM 58.2667 -83.2000 246° West 500 575 34,000  Level Edmonton Center
05:21PM 58.1833 -83.4500 238° Southwest 500 575 34,000  Level Edmonton Center
05:22PM 58.1167 -83.6500 238° Southwest 500 575 34,000  Level Edmonton Center
05:23PM 58.0500 -83.9000 243° Southwest 500 575 34,000  Level Edmonton Center
05:24PM 57.9833 -84.1000 238° Southwest 500 575 34,000  Level Edmonton Center
05:24PM 57.9833 -84.3500 270° West 500 575 34,000  Level Montreal Center
05:25PM 57.9167 -84.5833 242° Southwest 500 575 34,000  Level Montreal Center
05:26PM 57.8500 -84.5833 180° South 500 575 34,000  Level Edmonton Center
05:27PM 57.7833 -84.8000 240° Southwest 500 575 34,000  Level Edmonton Center
05:27PM 57.7667 -85.0333 262° West 500 575 34,000  Level Montreal Center
05:28PM 57.7000 -85.2667 242° Southwest 500 575 34,000  Level Montreal Center
05:29PM 57.6333 -85.4667 238° Southwest 500 575 34,000  Level Montreal Center
05:30PM 57.5500 -85.4833 186° South 500 575 34,000  Level Edmonton Center
05:31PM 57.4833 -85.7167 242° Southwest 500 575 34,000  Level Edmonton Center
05:31PM 57.4833 -85.9333 270° West 500 575 34,000  Level Montreal Center
05:32PM 57.4167 -86.1333 238° Southwest 500 575 34,000  Level Montreal Center
05:33PM 57.3500 -86.1500 188° South 500 575 34,000  Level Edmonton Center
05:34PM 57.2667 -86.3833 237° Southwest 500 575 34,000  Level Edmonton Center
05:35PM 57.2000 -86.5833 238° Southwest 500 575 34,000  Level Edmonton Center
05:36PM 57.1333 -86.8167 242° Southwest 500 575 34,000  Level Edmonton Center
05:37PM 57.0500 -87.0167 233° Southwest 500 575 34,000  Level Edmonton Center
05:38PM 56.9833 -87.2333 241° Southwest 500 575 34,000  Level Edmonton Center
05:39PM 56.9000 -87.4667 237° Southwest 490 564 34,000  Level Edmonton Center
05:40PM 56.8167 -87.6667 233° Southwest 490 564 34,000  Level Edmonton Center
05:41PM 56.7500 -87.9000 243° Southwest 490 564 34,000  Level Edmonton Center
05:42PM 56.6667 -88.0833 230° Southwest 490 564 34,000  Level Edmonton Center
05:43PM 56.6000 -88.3167 243° Southwest 490 564 34,000  Level Edmonton Center
05:44PM 56.5333 -88.5333 241° Southwest 490 564 34,000  Level Edmonton Center
05:45PM 56.4500 -88.7333 233° Southwest 490 564 34,000  Level Edmonton Center
05:46PM 56.3667 -88.9500 235° Southwest 490 564 34,000  Level Edmonton Center
05:46PM 56.3667 -89.0667 270° West 490 564 34,000  Level Winnipeg Center
05:47PM 56.2833 -89.2667 233° Southwest 500 575 34,000  Level Winnipeg Center
05:48PM 56.2167 -89.4833 241° Southwest 500 575 34,000  Level Winnipeg Center
05:49PM 56.1333 -89.6833 233° Southwest 500 575 34,000  Level Winnipeg Center
05:50PM 56.0667 -89.7667 215° Southwest 490 564 34,000  Level Edmonton Center
05:51PM 55.9833 -89.9833 236° Southwest 490 564 34,000  Level Edmonton Center
05:52PM 55.9167 -90.1667 237° Southwest 500 575 34,000  Level Edmonton Center
05:52PM 55.8833 -90.3000 246° West 500 575 34,000  Level Winnipeg Center
05:53PM 55.8167 -90.3667 209° Southwest 500 575 34,000  Level Edmonton Center
05:54PM 55.7333 -90.5833 236° Southwest 500 575 34,000  Level Edmonton Center
05:55PM 55.6500 -90.7667 231° Southwest 490 564 34,000  Level Edmonton Center
05:56PM 55.5500 -90.9500 226° Southwest 490 564 34,000  Level Edmonton Center
05:57PM 55.4667 -91.1333 231° Southwest 490 564 34,000  Level Edmonton Center
05:58PM 55.4000 -91.3500 242° Southwest 490 564 34,000  Level Edmonton Center
05:59PM 55.3167 -91.5167 229° Southwest 480 552 34,000  Level Edmonton Center
06:00PM 55.2333 -91.7000 231° Southwest 490 564 34,000  Level Edmonton Center
06:01PM 55.1333 -91.8833 226° Southwest 490 564 34,000  Level Edmonton Center
06:02PM 55.0500 -92.1000 236° Southwest 480 552 34,000  Level Edmonton Center
06:03PM 54.9667 -92.2667 229° Southwest 480 552 34,000  Level Edmonton Center
06:04PM 54.8833 -92.4500 232° Southwest 480 552 34,000  Level Edmonton Center
06:05PM 54.8000 -92.6333 232° Southwest 480 552 34,000  Level Edmonton Center
06:06PM 54.7167 -92.8000 229° Southwest 480 552 34,000  Level Edmonton Center
06:06PM 54.7000 -92.9000 254° West 480 552 34,000  Level Winnipeg Center
06:07PM 54.6000 -93.0833 227° Southwest 480 552 34,000  Level Winnipeg Center
06:08PM 54.5333 -93.2667 238° Southwest 480 552 34,000  Level Winnipeg Center
06:09PM 54.4333 -93.4500 227° Southwest 480 552 34,000  Level Winnipeg Center
06:10PM 54.3500 -93.6333 232° Southwest 480 552 34,000  Level Winnipeg Center
06:11PM 54.2500 -93.7833 221° Southwest 470 541 34,000  Level Winnipeg Center
06:12PM 54.1833 -93.9667 238° Southwest 480 552 34,000  Level Winnipeg Center
06:13PM 54.1000 -94.1333 230° Southwest 470 541 34,000  Level Winnipeg Center
06:14PM 54.0167 -94.3167 232° Southwest 470 541 34,000  Level Winnipeg Center
06:15PM 53.9167 -94.4667 221° Southwest 470 541 34,000  Level Winnipeg Center
06:16PM 53.8500 -94.5500 216° Southwest 450 518 34,000  Level Edmonton Center
06:17PM 53.7667 -94.7167 230° Southwest 460 529 34,000  Level Edmonton Center
06:17PM 53.7667 -94.8167 270° West 470 541 34,000  Level Winnipeg Center
06:18PM 53.6833 -94.9833 230° Southwest 470 541 34,000  Level Winnipeg Center
06:19PM 53.6000 -95.1500 230° Southwest 470 541 34,000  Level Winnipeg Center
06:20PM 53.5167 -95.3333 233° Southwest 460 529 34,000  Level Winnipeg Center
06:21PM 53.4333 -95.5000 230° Southwest 460 529 34,000  Level Winnipeg Center
06:22PM 53.3833 -95.5500 211° Southwest 450 518 34,000  Level Edmonton Center
06:22PM 53.3667 -95.6667 257° West 460 529 34,000  Level Winnipeg Center
06:23PM 53.2833 -95.8500 233° Southwest 460 529 34,000  Level Winnipeg Center
06:24PM 53.2000 -96.0167 230° Southwest 460 529 34,000  Level Winnipeg Center
06:25PM 53.1167 -96.1833 230° Southwest 450 518 34,000  Level Winnipeg Center
06:26PM 53.0333 -96.3167 224° Southwest 450 518 34,000  Level Winnipeg Center
06:27PM 52.9667 -96.4833 236° Southwest 450 518 34,000  Level Winnipeg Center
06:28PM 52.8833 -96.6667 233° Southwest 450 518 34,000  Level Winnipeg Center
06:29PM 52.8000 -96.8333 230° Southwest 460 529 34,100 900 Climbing Winnipeg Center
06:30PM 52.7167 -97.0000 231° Southwest 450 518 35,900 720 Climbing Winnipeg Center
06:32PM 52.5833 -97.2167 225° Southwest 450 518 36,000  Climbing Edmonton Center
06:32PM 52.5500 -97.3167 241° Southwest 460 529 36,000  Level Winnipeg Center
06:33PM 52.4833 -97.4667 234° Southwest 460 529 36,000  Level Winnipeg Center
06:34PM 52.4000 -97.6167 228° Southwest 450 518 36,000  Level Winnipeg Center
06:35PM 52.3167 -97.7833 231° Southwest 450 518 36,000  Level Winnipeg Center
06:36PM 52.2333 -97.9167 224° Southwest 450 518 36,000  Level Winnipeg Center
06:37PM 52.1667 -97.9833 212° Southwest 440 506 36,000  Level Edmonton Center
06:38PM 52.0833 -98.1333 228° Southwest 440 506 36,000  Level Edmonton Center
06:38PM 52.0833 -98.2500 270° West 450 518 36,000  Level Winnipeg Center
06:39PM 52.0000 -98.4000 228° Southwest 450 518 36,000  Level Winnipeg Center
06:40PM 51.9167 -98.5333 225° Southwest 450 518 36,000  Level Winnipeg Center
06:41PM 51.8167 -98.7333 231° Southwest 450 518 36,000  Level Winnipeg Center
06:42PM 51.7500 -98.8500 227° Southwest 460 529 36,000  Level Winnipeg Center
06:43PM 51.6500 -99.0167 226° Southwest 460 529 36,000  Level Winnipeg Center
06:44PM 51.5833 -99.1667 234° Southwest 460 529 36,000  Level Winnipeg Center
06:45PM 51.5000 -99.3333 231° Southwest 460 529 36,000  Level Winnipeg Center
06:46PM 51.4167 -99.4833 228° Southwest 450 518 36,000  Level Winnipeg Center
06:47PM 51.3167 -99.6167 220° Southwest 450 518 36,000  Level Winnipeg Center
06:48PM 51.2333 -99.7667 228° Southwest 450 518 36,000  Level Winnipeg Center
06:49PM 51.1667 -99.9333 238° Southwest 450 518 36,000  Level Winnipeg Center
06:50PM 51.0833 -100.0833 229° Southwest 450 518 36,000  Level Winnipeg Center
06:51PM 50.9833 -100.2167 220° Southwest 450 518 36,000  Level Winnipeg Center
06:52PM 50.9000 -100.3667 229° Southwest 450 518 36,000  Level Winnipeg Center
06:53PM 50.8167 -100.4833 222° Southwest 440 506 36,000  Level Winnipeg Center
06:54PM 50.7167 -100.6333 224° Southwest 440 506 36,000  Level Winnipeg Center
06:55PM 50.6333 -100.8000 232° Southwest 450 518 36,000  Level Winnipeg Center
06:56PM 50.5500 -100.9167 222° Southwest 440 506 36,000  Level Winnipeg Center
06:57PM 50.4667 -101.0667 229° Southwest 440 506 36,000  Level Winnipeg Center
06:58PM 50.3667 -101.1833 217° Southwest 440 506 36,000  Level Winnipeg Center
06:59PM 50.2833 -101.3333 229° Southwest 440 506 36,000  Level Winnipeg Center
07:00PM 50.2167 -101.4667 232° Southwest 440 506 36,000  Level Winnipeg Center
07:01PM 50.1167 -101.6167 224° Southwest 440 506 36,000  Level Winnipeg Center
07:02PM 50.0333 -101.7333 222° Southwest 440 506 36,000  Level Winnipeg Center
07:03PM 49.9333 -101.8833 224° Southwest 440 506 36,000  Level Winnipeg Center
07:04PM 49.8500 -102.0000 222° Southwest 440 506 36,000  Level Winnipeg Center
07:05PM 49.7667 -102.1167 222° Southwest 450 518 36,000  Level Winnipeg Center
07:06PM 49.6667 -102.2667 224° Southwest 440 506 36,000  Level Winnipeg Center
07:07PM 49.5833 -102.3833 222° Southwest 440 506 36,000  Level Winnipeg Center
07:08PM 49.5000 -102.5333 229° Southwest 440 506 36,000  Level Winnipeg Center
07:09PM 49.4167 -102.6500 222° Southwest 430 495 36,000  Level Winnipeg Center
07:10PM 49.3333 -102.8000 230° Southwest 440 506 36,000  Level Winnipeg Center
07:11PM 49.2333 -102.9167 217° Southwest 440 506 36,000  Level Winnipeg Center
07:12PM 49.1500 -103.0333 223° Southwest 430 495 36,000  Level Winnipeg Center
07:13PM 49.0500 -103.1667 221° Southwest 430 495 36,000  Level Winnipeg Center
07:14PM 48.9833 -103.2833 229° Southwest 430 495 36,000  Level Winnipeg Center
07:15PM 48.8833 -103.4333 225° Southwest 430 495 36,000  Level Winnipeg Center
07:16PM 48.8000 -103.5500 223° Southwest 430 495 36,000  Level Winnipeg Center
07:17PM 48.7333 -103.6667 229° Southwest 430 495 36,000  Level Winnipeg Center
07:18PM 48.6167 -103.8000 217° Southwest 430 495 36,000  Level Winnipeg Center
07:19PM 48.5500 -103.9167 229° Southwest 440 506 36,000  Level Winnipeg Center
07:20PM 48.4500 -104.0500 222° Southwest 440 506 36,000  Level Winnipeg Center
07:21PM 48.3667 -104.1667 223° Southwest 430 495 36,000  Level Winnipeg Center
07:22PM 48.2667 -104.3000 222° Southwest 440 506 36,000  Level Winnipeg Center
07:23PM 48.1833 -104.4167 223° Southwest 440 506 36,000  Level Winnipeg Center
07:24PM 48.1000 -104.5333 223° Southwest 440 506 36,000  Level Winnipeg Center
07:25PM 48.0000 -104.6667 222° Southwest 440 506 36,000  Level Winnipeg Center
07:26PM 47.9167 -104.7833 223° Southwest 440 506 36,000  Level Winnipeg Center
07:27PM 47.8167 -104.9167 222° Southwest 440 506 36,000  Level Winnipeg Center
07:28PM 47.7333 -105.0167 219° Southwest 440 506 36,000  Level Winnipeg Center
07:29PM 47.6333 -105.1667 225° Southwest 430 495 36,000  Level Winnipeg Center
07:30PM 47.5500 -105.2667 219° Southwest 440 506 36,000  Level Winnipeg Center
07:30PM 47.5608 -105.2667 360° North 436 502 36,000  Level Salt Lake Center
07:31PM 47.4719 -105.3875 223° Southwest 437 503 36,000  Level Salt Lake Center
07:32PM 47.3803 -105.5075 222° Southwest 441 507 36,000  Level Salt Lake Center
07:33PM 47.2700 -105.6528 222° Southwest 443 510 36,000  Level Salt Lake Center
07:35PM 47.1758 -105.7750 221° Southwest 443 510 36,000  Level Salt Lake Center
07:36PM 47.0861 -105.8906 221° Southwest 441 507 36,000  Level Salt Lake Center
07:37PM 46.9950 -106.0103 222° Southwest 442 509 36,000  Level Salt Lake Center
07:38PM 46.9022 -106.1278 221° Southwest 442 509 36,000  Level Salt Lake Center
07:39PM 46.8044 -106.2439 219° Southwest 443 510 36,000  Level Salt Lake Center
07:40PM 46.6992 -106.3717 220° Southwest 440 506 36,000  Level Salt Lake Center
07:41PM 46.6092 -106.4811 220° Southwest 439 505 36,000  Level Salt Lake Center
07:42PM 46.5206 -106.5881 220° Southwest 435 501 36,000  Level Salt Lake Center
07:43PM 46.4178 -106.7133 220° Southwest 433 498 36,000  Level Salt Lake Center
07:44PM 46.3269 -106.8211 219° Southwest 438 504 36,000  Level Salt Lake Center
07:45PM 46.2364 -106.9314 220° Southwest 442 509 36,000  Level Salt Lake Center
07:46PM 46.1300 -107.0572 219° Southwest 443 510 36,000  Level Salt Lake Center
07:47PM 46.0394 -107.1653 220° Southwest 442 509 36,000  Level Salt Lake Center
07:48PM 45.9336 -107.2897 219° Southwest 440 506 36,000  Level Salt Lake Center
07:49PM 45.8425 -107.3967 219° Southwest 443 510 36,000  Level Salt Lake Center
07:50PM 45.7508 -107.5036 219° Southwest 444 511 36,000  Level Salt Lake Center
07:51PM 45.6450 -107.6275 219° Southwest 441 507 36,000  Level Salt Lake Center
07:52PM 45.5544 -107.7331 219° Southwest 440 506 36,000  Level Salt Lake Center
07:53PM 45.4639 -107.8369 219° Southwest 439 505 36,000  Level Salt Lake Center
07:54PM 45.3589 -107.9586 219° Southwest 439 505 36,000  Level Salt Lake Center
07:55PM 45.2664 -108.0639 219° Southwest 445 512 36,000  Level Salt Lake Center
07:56PM 45.1589 -108.1853 219° Southwest 445 512 36,000  Level Salt Lake Center
07:57PM 45.0686 -108.2900 219° Southwest 443 510 36,000  Level Salt Lake Center
07:58PM 44.9775 -108.3947 219° Southwest 443 510 36,000  Level Salt Lake Center
07:59PM 44.8686 -108.5158 218° Southwest 448 516 36,000  Level Salt Lake Center
08:00PM 44.7756 -108.6194 218° Southwest 447 514 36,000  Level Salt Lake Center
08:01PM 44.6658 -108.7403 218° Southwest 450 518 36,000  Level Salt Lake Center
08:02PM 44.5733 -108.8431 218° Southwest 445 512 36,000  Level Salt Lake Center
08:03PM 44.4808 -108.9456 218° Southwest 443 510 36,000  Level Salt Lake Center
08:04PM 44.3728 -109.0644 218° Southwest 444 511 36,000  Level Salt Lake Center
08:05PM 44.2792 -109.1661 218° Southwest 446 513 36,000  Level Salt Lake Center
08:06PM 44.1700 -109.2844 218° Southwest 447 514 36,000  Level Salt Lake Center
08:07PM 44.0753 -109.3875 218° Southwest 451 519 36,000  Level Salt Lake Center
08:08PM 43.9814 -109.4883 218° Southwest 457 526 36,000  Level Salt Lake Center
08:09PM 43.8689 -109.6094 218° Southwest 458 527 36,000  Level Salt Lake Center
08:10PM 43.7722 -109.7131 218° Southwest 458 527 36,000  Level Salt Lake Center
08:11PM 43.6583 -109.8331 217° Southwest 459 528 36,000  Level Salt Lake Center
08:12PM 43.5633 -109.9333 217° Southwest 452 520 36,000  Level Salt Lake Center
08:13PM 43.4550 -110.0417 216° Southwest 455 524 36,000  Level Salt Lake Center
08:14PM 43.3489 -110.1281 211° Southwest 462 532 36,000  Level Salt Lake Center
08:15PM 43.2339 -110.2236 211° Southwest 466 536 36,000  Level Salt Lake Center
08:16PM 43.1289 -110.3119 212° Southwest 463 533 36,000  Level Salt Lake Center
08:17PM 43.0069 -110.4122 211° Southwest 458 527 36,000  Level Salt Lake Center
08:18PM 42.8906 -110.5056 210° Southwest 467 537 36,000  Level Salt Lake Center
08:24PM 42.2490 -111.0240 210° Southwest 466 536 36,000  Level FlightAware
08:25PM 42.1680 -111.0890 211° Southwest 451 519 36,000  Level FlightAware
08:26PM 42.1020 -111.1420 211° Southwest 451 519 36,000  Level FlightAware
08:26PM 42.0120 -111.2120 210° Southwest 449 517 36,000  Level FlightAware
08:27PM 41.9380 -111.2720 211° Southwest 449 517 36,000  Level FlightAware
08:28PM 41.8770 -111.3200 210° Southwest 468 539 36,000  Level FlightAware
08:28PM 41.7790 -111.3970 210° Southwest 464 534 36,000  Level FlightAware
08:29PM 41.7070 -111.4530 210° Southwest 450 518 36,000  Level FlightAware
08:30PM 41.6270 -111.5160 210° Southwest 448 516 36,000  Level FlightAware
08:30PM 41.5510 -111.5750 210° Southwest 449 517 36,000  Level FlightAware
08:31PM 41.4790 -111.6310 210° Southwest 452 520 36,000  Level FlightAware
08:32PM 41.3970 -111.6940 210° Southwest 448 516 36,000  Level FlightAware
08:33PM 41.3240 -111.7510 210° Southwest 447 514 36,000  Level FlightAware
08:33PM 41.2520 -111.8070 210° Southwest 450 518 36,000  Level FlightAware
08:34PM 41.1680 -111.8710 210° Southwest 450 518 36,000  Level FlightAware
08:35PM 41.0950 -111.9280 210° Southwest 448 516 36,000  Level FlightAware
08:35PM 41.0130 -111.9890 209° Southwest 455 524 36,000  Level FlightAware
08:36PM 40.9350 -112.0400 206° Southwest 459 528 36,000  Level FlightAware
08:37PM 40.8560 -112.0870 204° Southwest 461 531 36,000  Level FlightAware
08:37PM 40.7670 -112.1400 204° Southwest 459 528 36,000  Level FlightAware
08:38PM 40.6890 -112.1870 205° Southwest 461 531 36,000  Level FlightAware
08:39PM 40.6000 -112.2400 204° Southwest 460 529 36,000  Level FlightAware
08:40PM 40.5210 -112.2870 204° Southwest 447 514 36,000  Level FlightAware
08:40PM 40.4470 -112.3310 204° Southwest 442 509 36,000  Level FlightAware
08:41PM 40.3600 -112.3820 204° Southwest 441 507 36,000  Level FlightAware
08:42PM 40.2850 -112.4270 205° Southwest 442 509 36,000  Level FlightAware
08:42PM 40.2090 -112.4720 204° Southwest 449 517 36,000  Level FlightAware
08:43PM 40.1230 -112.5220 204° Southwest 443 510 36,000  Level FlightAware
08:44PM 40.0470 -112.5670 204° Southwest 445 512 36,000  Level FlightAware
08:44PM 39.9610 -112.6170 204° Southwest 444 511 36,000  Level FlightAware
08:45PM 39.8910 -112.6580 204° Southwest 445 512 36,000  Level FlightAware
08:46PM 39.8070 -112.7060 204° Southwest 443 510 36,000  Level FlightAware
08:46PM 39.7300 -112.7510 204° Southwest 443 510 36,000  Level FlightAware
08:47PM 39.6490 -112.7980 204° Southwest 443 510 36,000  Level FlightAware
08:48PM 39.5690 -112.8440 204° Southwest 443 510 36,000  Level FlightAware
08:49PM 39.4750 -112.8990 204° Southwest 441 507 36,000  Level FlightAware
08:49PM 39.3990 -112.9420 204° Southwest 441 507 36,000  Level FlightAware
08:50PM 39.3330 -112.9800 204° Southwest 441 507 36,000  Level FlightAware
08:51PM 39.2600 -113.0220 204° Southwest 441 507 36,000  Level FlightAware
08:51PM 39.1970 -113.0580 204° Southwest 441 507 36,000  Level FlightAware
08:52PM 39.1170 -113.1040 204° Southwest 441 507 36,000  Level FlightAware
08:53PM 39.0540 -113.1400 204° Southwest 441 507 36,000  Level FlightAware
08:54PM 38.9050 -113.2240 204° Southwest 457 526 36,000  Level FlightAware
08:54PM 38.8390 -113.2610 204° Southwest 457 526 36,000  Level FlightAware
08:55PM 38.7570 -113.3080 204° Southwest 457 526 36,000  Level FlightAware
08:56PM 38.6910 -113.3460 204° Southwest 457 526 36,000  Level FlightAware
08:57PM 38.6260 -113.3830 204° Southwest 457 526 36,000  Level FlightAware
08:57PM 38.5600 -113.4210 204° Southwest 457 526 36,000  Level FlightAware
08:58PM 38.4940 -113.4580 204° Southwest 457 526 36,000  Level FlightAware
08:59PM 38.4120 -113.5050 204° Southwest 457 526 36,000  Level FlightAware
08:59PM 38.3460 -113.5420 204° Southwest 457 526 36,000  Level FlightAware
09:00PM 38.2810 -113.5790 204° Southwest 457 526 36,000  Level FlightAware
09:01PM 38.2150 -113.6160 204° Southwest 457 526 36,000  Level FlightAware
09:01PM 38.1490 -113.6540 204° Southwest 457 526 36,000  Level FlightAware
09:02PM 38.0670 -113.7000 204° Southwest 457 526 36,000  Level FlightAware
09:03PM 38.0020 -113.7370 204° Southwest 457 526 36,000  Level FlightAware
09:06PM 37.3730 -114.0630 202° Southwest 478 550 36,000  Level FlightAware
09:07PM 37.2910 -114.1030 201° Southwest 473 544 36,000  Level FlightAware
09:08PM 37.2090 -114.1430 201° Southwest 470 541 36,000  Level FlightAware
09:08PM 37.1210 -114.1870 202° Southwest 476 548 36,000  Level FlightAware
09:09PM 37.0380 -114.2270 201° Southwest 478 550 36,000  Level FlightAware
09:10PM 36.9550 -114.2680 202° Southwest 480 552 36,000  Level FlightAware
09:10PM 36.8730 -114.3110 203° Southwest 475 547 36,000  Level FlightAware
09:11PM 36.7850 -114.3740 210° Southwest 462 532 36,000  Level FlightAware
09:12PM 36.7100 -114.4440 217° Southwest 460 529 36,000  Level FlightAware
09:12PM 36.6420 -114.5070 217° Southwest 463 533 36,000  Level FlightAware
09:13PM 36.5630 -114.5790 216° Southwest 466 536 36,000  Level FlightAware
09:14PM 36.4920 -114.6440 216° Southwest 466 536 36,000  Level FlightAware
09:15PM 36.4230 -114.7060 216° Southwest 468 539 36,000  Level FlightAware
09:15PM 36.3450 -114.7770 216° Southwest 470 541 36,000  Level FlightAware
09:16PM 36.2740 -114.8410 216° Southwest 473 544 36,000  Level FlightAware
09:17PM 36.1950 -114.9120 216° Southwest 466 536 36,000  Level FlightAware
09:17PM 36.1260 -114.9740 216° Southwest 467 537 36,000  Level FlightAware
09:18PM 36.0550 -115.0370 216° Southwest 469 540 36,000  Level FlightAware
09:19PM 35.9760 -115.1080 216° Southwest 469 540 36,000  Level FlightAware
09:19PM 35.9050 -115.1710 216° Southwest 469 540 36,000  Level FlightAware
09:20PM 35.8280 -115.2410 216° Southwest 468 539 36,000  Level FlightAware
09:21PM 35.7560 -115.3040 215° Southwest 471 542 36,000  Level FlightAware
09:22PM 35.6860 -115.3660 216° Southwest 466 536 36,000  Level FlightAware
09:22PM 35.6090 -115.4350 216° Southwest 470 541 36,000  Level FlightAware
09:23PM 35.5370 -115.4990 216° Southwest 470 541 36,000  Level FlightAware
09:24PM 35.4720 -115.5710 222° Southwest 461 531 36,000  Level FlightAware
09:24PM 35.4070 -115.6590 228° Southwest 460 529 36,000  Level FlightAware
09:25PM 35.3530 -115.7310 227° Southwest 460 529 36,000  Level FlightAware
09:26PM 35.2870 -115.8180 227° Southwest 458 527 36,000  Level FlightAware
09:26PM 35.2860 -115.8200 239° Southwest 460 529 36,000  Level FlightAware
09:27PM 35.2240 -115.9020 227° Southwest 460 529 36,000 -480 Level FlightAware
09:28PM 35.0910 -116.0780 227° Southwest 452 520 35,200 -720 Descending FlightAware
09:29PM 35.0290 -116.1590 227° Southwest 455 524 34,800 -540 Descending FlightAware
09:29PM 34.9690 -116.2380 227° Southwest 460 529 34,500 -300 Descending FlightAware
09:30PM 34.9140 -116.3100 227° Southwest 457 526 34,400 -960 Descending FlightAware
09:31PM 34.8450 -116.4010 227° Southwest 462 532 33,200 -1,920 Descending FlightAware
09:32PM 34.7770 -116.4810 224° Southwest 458 527 31,600 -2,160 Descending FlightAware
09:32PM 34.7110 -116.5450 219° Southwest 453 521 30,200 -2,100 Descending FlightAware
09:33PM 34.6570 -116.5960 218° Southwest 444 511 29,000 -2,040 Descending FlightAware
09:34PM 34.5910 -116.6570 217° Southwest 439 505 27,700 -1,560 Descending FlightAware
09:34PM 34.5110 -116.7320 218° Southwest 426 490 26,700 -1,140 Descending FlightAware
09:35PM 34.4490 -116.7900 218° Southwest 414 476 26,000 -1,500 Descending FlightAware
09:36PM 34.3800 -116.8550 218° Southwest 408 470 24,600 -1,860 Descending FlightAware
09:36PM 34.3200 -116.9110 218° Southwest 399 459 23,400 -1,920 Descending FlightAware
09:37PM 34.2560 -116.9710 218° Southwest 397 457 21,900 -1,860 Descending FlightAware
09:38PM 34.1980 -117.0240 217° Southwest 391 450 20,800 -1,740 Descending FlightAware
09:39PM 34.1390 -117.0790 218° Southwest 385 443 19,600 -1,920 Descending FlightAware
09:39PM 34.0890 -117.1520 230° Southwest 375 432 18,100 -2,160 Descending FlightAware
09:40PM 34.0560 -117.2280 242° Southwest 376 433 16,600 -2,280 Descending FlightAware
09:41PM 34.0420 -117.3050 258° West 351 404 15,100 -2,160 Descending FlightAware
09:41PM 34.0350 -117.3890 264° West 328 377 13,600 -1,860 Descending FlightAware
09:42PM 34.0300 -117.4610 265° West 324 373 12,500 -1,680 Descending FlightAware
09:43PM 34.0330 -117.5410 273° West 318 366 11,300 -1,440 Descending FlightAware
09:43PM 34.0300 -117.6120 267° West 307 353 10,500 -780 Descending FlightAware
09:44PM 34.0240 -117.6830 264° West 277 319 10,200 -660 Descending FlightAware
09:45PM 34.0190 -117.7290 263° West 268 308 9,700 -1,080 Descending FlightAware
09:45PM 34.0160 -117.7590 263° West 267 307 9,300 -1,200 Descending FlightAware
09:45PM 34.0130 -117.7870 263° West 267 307 8,900 -1,380 Descending FlightAware
09:46PM 34.0100 -117.8260 265° West 266 306 8,300 -1,380 Descending FlightAware
09:46PM 34.0080 -117.8470 263° West 262 302 8,000 -1,200 Descending FlightAware
09:47PM 34.0030 -117.8890 262° West 240 276 7,400 -1,140 Descending FlightAware
09:47PM 34.0000 -117.9270 265° West 232 267 6,900 -900 Descending FlightAware
09:47PM 33.9980 -117.9400 259° West 232 267 6,800 -780 Descending FlightAware
09:48PM 33.9950 -117.9770 264° West 205 236 6,400 -900 Descending FlightAware
09:48PM 33.9920 -118.0050 263° West 189 217 6,000 -780 Descending FlightAware
09:49PM 33.9890 -118.0350 263° West 186 214 5,700 -540 Descending FlightAware
09:49PM 33.9870 -118.0500 261° West 188 216 5,600 -720 Descending FlightAware
09:49PM 33.9840 -118.0810 263° West 190 219 5,200 -780 Descending FlightAware
09:50PM 33.9820 -118.1090 265° West 173 199 4,900 -660 Descending FlightAware
09:50PM 33.9790 -118.1350 262° West 172 198 4,600 -780 Descending FlightAware
09:51PM 33.9770 -118.1600 264° West 173 199 4,200 -1,020 Descending FlightAware
09:51PM 33.9740 -118.1880 263° West 173 199 3,700 -1,020 Descending FlightAware
09:52PM 33.9710 -118.2120 261° West 177 204 3,300 -1,020 Descending FlightAware
09:52PM 33.9680 -118.2430 263° West 180 207 2,800 -1,020 Descending FlightAware
09:53PM 33.9650 -118.2730 263° West 173 199 2,300 -840 Descending FlightAware
09:53PM 33.9640 -118.2830 263° West 172 198 2,200 -840 Descending FlightAware
09:53PM 33.9610 -118.3180 264° West 163 188 1,600 -660 Descending FlightAware
09:54PM 33.9590 -118.3300 259° West 155 178 1,400 -240 Descending FlightAware
09:55PM 33.9570 -118.3490 263° West 155 178 1,400 -960 Level FlightAware
09:55PM 33.9530 -118.3910 263° West 142 163 400 -1,200 Descending FlightAware
09:56PM 33.9520 -118.4020 264° West 144 166 200 -300 Descending FlightAware
09:56PM 33.9500 -118.4200 262° West 144 166 200  Level FlightAware